createdAt,value
2023-03-27T00:01:18.330Z,4.43
2023-03-27T00:04:21.602Z,4.40
2023-03-27T00:07:26.392Z,4.37
2023-03-27T00:10:31.024Z,4.38
2023-03-27T00:13:34.488Z,4.34
2023-03-27T00:16:38.063Z,4.26
2023-03-27T00:19:41.167Z,4.20
2023-03-27T00:22:45.870Z,4.22
2023-03-27T00:25:52.584Z,4.17
2023-03-27T00:28:55.726Z,4.13
2023-03-27T00:31:58.700Z,4.08
2023-03-27T00:35:01.805Z,4.06
2023-03-27T00:38:07.704Z,4.03
2023-03-27T00:41:10.916Z,4.02
2023-03-27T00:44:31.146Z,3.99
2023-03-27T00:47:39.767Z,4.04
2023-03-27T00:50:46.656Z,3.98
2023-03-27T00:53:52.644Z,3.96
2023-03-27T00:56:59.052Z,3.99
2023-03-27T01:00:09.477Z,3.94
2023-03-27T01:03:14.268Z,3.90
2023-03-27T01:06:18.804Z,3.88
2023-03-27T01:09:27.067Z,3.91
2023-03-27T01:12:38.965Z,3.92
2023-03-27T01:15:54.507Z,3.90
2023-03-27T01:19:29.130Z,3.87
2023-03-27T01:23:03.823Z,3.72
2023-03-27T01:26:40.057Z,3.69
2023-03-27T01:30:00.811Z,3.68
2023-03-27T01:34:03.542Z,3.65
2023-03-27T01:37:52.969Z,3.55
2023-03-27T01:41:02.525Z,3.59
2023-03-27T01:44:14.214Z,3.55
2023-03-27T01:47:28.957Z,3.52
2023-03-27T01:50:39.968Z,3.58
2023-03-27T01:53:48.160Z,3.56
2023-03-27T01:57:02.527Z,3.51
2023-03-27T02:00:19.421Z,3.37
2023-03-27T02:03:28.210Z,3.42
2023-03-27T02:06:34.345Z,3.45
2023-03-27T02:09:42.020Z,3.44
2023-03-27T02:12:50.259Z,3.39
2023-03-27T02:15:54.739Z,3.35
2023-03-27T02:19:03.068Z,3.31
2023-03-27T02:22:07.896Z,3.24
2023-03-27T02:25:31.700Z,3.16
2023-03-27T02:28:58.282Z,3.08
2023-03-27T02:32:14.299Z,3.01
2023-03-27T02:35:29.470Z,2.94
2023-03-27T02:38:41.766Z,2.91
2023-03-27T02:41:51.968Z,2.89
2023-03-27T02:45:17.398Z,2.84
2023-03-27T02:48:29.473Z,2.80
2023-03-27T02:51:43.717Z,2.74
2023-03-27T02:54:54.400Z,2.69
2023-03-27T02:58:02.258Z,2.64
2023-03-27T03:01:27.600Z,2.67
2023-03-27T03:04:47.843Z,2.66
2023-03-27T03:07:58.244Z,2.62
2023-03-27T03:11:04.577Z,2.60
2023-03-27T03:14:07.553Z,2.60
2023-03-27T03:17:12.047Z,2.61
2023-03-27T03:20:17.042Z,2.62
2023-03-27T03:23:20.013Z,2.53
2023-03-27T03:26:23.191Z,2.46
2023-03-27T03:29:35.525Z,2.43
2023-03-27T03:33:03.278Z,2.33
2023-03-27T03:36:07.517Z,2.24
2023-03-27T03:39:13.043Z,2.21
2023-03-27T03:42:22.456Z,2.19
2023-03-27T03:45:27.780Z,2.10
2023-03-27T03:48:32.144Z,2.10
2023-03-27T03:51:36.302Z,2.10
2023-03-27T03:54:40.408Z,2.04
2023-03-27T03:57:48.269Z,2.00
2023-03-27T04:00:58.547Z,1.98
2023-03-27T04:04:12.774Z,1.96
2023-03-27T04:07:36.119Z,1.94
2023-03-27T04:10:57.400Z,1.93
2023-03-27T04:14:36.347Z,1.92
2023-03-27T04:17:48.805Z,1.89
2023-03-27T04:20:54.428Z,1.89
2023-03-27T04:24:02.662Z,1.88
2023-03-27T04:27:19.209Z,1.84
2023-03-27T04:30:38.694Z,1.85
2023-03-27T04:33:51.873Z,1.81
2023-03-27T04:37:18.423Z,1.82
2023-03-27T04:40:38.944Z,1.82
2023-03-27T04:43:42.166Z,1.81
2023-03-27T04:46:45.482Z,1.81
2023-03-27T04:49:50.832Z,1.84
2023-03-27T04:53:02.025Z,1.80
2023-03-27T04:56:12.436Z,1.82
2023-03-27T04:59:18.465Z,1.77
2023-03-27T05:02:34.394Z,1.78
2023-03-27T05:05:50.482Z,1.80
2023-03-27T05:08:55.007Z,1.87
2023-03-27T05:12:06.751Z,1.88
2023-03-27T05:15:18.090Z,1.91
2023-03-27T05:18:22.312Z,1.91
2023-03-27T05:21:27.321Z,1.91
2023-03-27T05:24:33.341Z,1.90
2023-03-27T05:27:36.489Z,1.88
2023-03-27T05:30:42.151Z,1.85
2023-03-27T05:33:51.652Z,1.84
2023-03-27T05:36:57.864Z,1.83
2023-03-27T05:40:05.936Z,1.82
2023-03-27T05:43:09.201Z,1.78
2023-03-27T05:46:13.722Z,1.76
2023-03-27T05:49:28.781Z,1.78
2023-03-27T05:52:40.911Z,1.76
2023-03-27T05:55:45.858Z,1.70
2023-03-27T05:58:48.820Z,1.64
2023-03-27T06:01:52.758Z,1.66
2023-03-27T06:05:01.262Z,1.72
2023-03-27T06:08:11.613Z,1.78
2023-03-27T06:11:19.115Z,1.85
2023-03-27T06:14:23.858Z,1.97
2023-03-27T06:17:48.433Z,2.04
2023-03-27T06:20:52.959Z,2.13
2023-03-27T06:23:56.845Z,2.22
2023-03-27T06:27:01.128Z,2.28
2023-03-27T06:30:11.111Z,2.42
2023-03-27T06:33:16.868Z,2.49
2023-03-27T06:36:20.574Z,2.53
2023-03-27T06:39:27.268Z,2.57
2023-03-27T06:42:36.925Z,2.58
2023-03-27T06:46:00.088Z,2.63
2023-03-27T06:49:38.087Z,2.76
2023-03-27T06:52:54.508Z,2.98
2023-03-27T06:56:14.805Z,3.32
2023-03-27T06:59:48.855Z,3.28
2023-03-27T07:02:58.005Z,3.43
2023-03-27T07:06:20.948Z,3.35
2023-03-27T07:09:30.476Z,3.15
2023-03-27T07:12:40.533Z,3.12
2023-03-27T07:15:45.435Z,3.11
2023-03-27T07:18:48.435Z,3.24
2023-03-27T07:21:51.405Z,3.25
2023-03-27T07:24:54.358Z,3.29
2023-03-27T07:28:00.483Z,3.49
2023-03-27T07:31:25.964Z,3.75
2023-03-27T07:34:35.237Z,3.60
2023-03-27T07:37:55.016Z,3.34
2023-03-27T07:41:13.728Z,3.58
2023-03-27T07:44:37.195Z,3.62
2023-03-27T07:47:45.994Z,3.62
2023-03-27T07:50:49.008Z,3.72
2023-03-27T07:53:58.347Z,3.92
2023-03-27T07:57:07.476Z,3.77
2023-03-27T08:00:32.564Z,3.75
2023-03-27T08:03:47.298Z,3.79
2023-03-27T08:06:54.671Z,3.90
2023-03-27T08:09:59.912Z,3.78
2023-03-27T08:13:03.936Z,3.83
2023-03-27T08:16:10.416Z,3.92
2023-03-27T08:19:19.595Z,3.73
2023-03-27T08:22:27.291Z,3.66
2023-03-27T08:25:53.147Z,3.77
2023-03-27T08:29:00.367Z,3.91
2023-03-27T08:32:09.531Z,4.22
2023-03-27T08:35:14.440Z,4.17
2023-03-27T08:38:25.982Z,4.35
2023-03-27T08:41:55.104Z,4.58
2023-03-27T08:45:20.922Z,4.79
2023-03-27T08:48:33.581Z,4.70
2023-03-27T08:51:47.023Z,4.84
2023-03-27T08:54:58.293Z,4.58
2023-03-27T08:58:20.188Z,4.64
2023-03-27T09:01:31.154Z,4.78
2023-03-27T09:04:49.384Z,4.91
2023-03-27T09:08:05.143Z,4.67
2023-03-27T09:11:25.077Z,4.51
2023-03-27T09:14:38.650Z,5.00
2023-03-27T09:17:49.256Z,5.08
2023-03-27T09:20:56.680Z,5.07
2023-03-27T09:24:08.585Z,4.88
2023-03-27T09:27:32.635Z,4.92
2023-03-27T09:31:01.873Z,5.15
2023-03-27T09:34:16.685Z,5.52
2023-03-27T09:37:22.003Z,5.25
2023-03-27T09:40:33.895Z,4.90
2023-03-27T09:43:43.370Z,4.79
2023-03-27T09:46:49.140Z,4.79
2023-03-27T09:49:57.544Z,5.03
2023-03-27T09:53:19.012Z,5.55
2023-03-27T09:56:51.759Z,5.75
2023-03-27T09:59:59.543Z,6.08
2023-03-27T10:03:08.749Z,5.95
2023-03-27T10:06:26.080Z,5.34
2023-03-27T10:09:41.022Z,5.49
2023-03-27T10:12:53.085Z,6.23
2023-03-27T10:16:01.976Z,6.37
2023-03-27T10:19:24.242Z,6.14
2023-03-27T10:22:30.807Z,6.43
2023-03-27T10:25:38.046Z,7.09
2023-03-27T10:29:16.559Z,6.89
2023-03-27T10:32:49.505Z,6.36
2023-03-27T10:36:12.561Z,5.97
2023-03-27T10:39:17.081Z,5.72
2023-03-27T10:42:57.079Z,6.48
2023-03-27T10:46:04.962Z,7.44
2023-03-27T10:49:24.321Z,7.29
2023-03-27T10:52:38.210Z,6.70
2023-03-27T10:56:02.412Z,6.50
2023-03-27T10:59:23.276Z,6.43
2023-03-27T11:02:38.532Z,6.14
2023-03-27T11:05:46.626Z,6.13
2023-03-27T11:09:06.125Z,6.20
2023-03-27T11:12:15.553Z,6.82
2023-03-27T11:15:31.796Z,7.46
2023-03-27T11:18:40.234Z,7.86
2023-03-27T11:21:49.520Z,7.98
2023-03-27T11:25:06.513Z,8.36
2023-03-27T11:28:21.002Z,8.40
2023-03-27T11:31:38.276Z,8.32
2023-03-27T11:34:49.056Z,8.27
2023-03-27T11:38:19.161Z,7.82
2023-03-27T11:41:26.932Z,8.05
2023-03-27T11:44:30.644Z,8.01
2023-03-27T11:48:10.686Z,7.98
2023-03-27T11:51:29.745Z,7.72
2023-03-27T11:54:58.728Z,7.83
2023-03-27T11:58:20.669Z,7.26
2023-03-27T12:01:28.931Z,7.13
2023-03-27T12:04:49.469Z,7.82
2023-03-27T12:08:19.643Z,8.26
2023-03-27T12:11:27.974Z,7.81
2023-03-27T12:14:49.997Z,8.00
2023-03-27T12:18:03.882Z,7.53
2023-03-27T12:21:18.053Z,7.95
2023-03-27T12:24:59.056Z,8.65
2023-03-27T12:28:44.736Z,8.36
2023-03-27T12:32:19.601Z,8.41
2023-03-27T12:35:28.287Z,8.57
2023-03-27T12:38:37.571Z,8.92
2023-03-27T12:41:46.260Z,9.13
2023-03-27T12:45:15.919Z,9.08
2023-03-27T12:48:30.316Z,8.11
2023-03-27T12:51:43.297Z,7.87
2023-03-27T12:55:31.116Z,8.35
2023-03-27T12:58:38.499Z,7.80
2023-03-27T13:02:51.189Z,7.71
2023-03-27T13:06:17.181Z,7.44
2023-03-27T13:09:37.198Z,7.14
2023-03-27T13:13:07.184Z,7.01
2023-03-27T13:16:33.533Z,6.45
2023-03-27T13:19:54.701Z,6.07
2023-03-27T13:23:22.249Z,5.87
2023-03-27T13:26:49.002Z,5.51
2023-03-27T13:29:54.141Z,5.86
2023-03-27T13:33:17.387Z,6.70
2023-03-27T13:36:24.725Z,7.35
2023-03-27T13:39:41.194Z,6.75
2023-03-27T13:42:47.696Z,6.13
2023-03-27T13:46:01.343Z,5.96
2023-03-27T13:50:00.696Z,6.05
2023-03-27T13:53:28.467Z,6.25
2023-03-27T13:56:54.586Z,6.21
2023-03-27T14:00:48.912Z,5.98
2023-03-27T14:04:29.512Z,5.89
2023-03-27T14:08:05.724Z,5.65
2023-03-27T14:11:46.090Z,6.23
2023-03-27T14:15:38.907Z,6.74
2023-03-27T14:19:32.592Z,7.63
2023-03-27T14:22:44.954Z,8.22
2023-03-27T14:25:57.873Z,8.07
2023-03-27T14:29:08.500Z,7.57
2023-03-27T14:32:18.352Z,7.13
2023-03-27T14:35:35.960Z,7.88
2023-03-27T14:38:41.552Z,8.04
2023-03-27T14:41:55.563Z,8.05
2023-03-27T14:45:20.728Z,8.38
2023-03-27T14:48:30.274Z,8.05
2023-03-27T14:51:42.127Z,8.30
2023-03-27T14:54:55.552Z,8.38
2023-03-27T14:58:11.497Z,8.16
2023-03-27T15:01:21.931Z,8.13
2023-03-27T15:04:31.545Z,8.16
2023-03-27T15:07:38.168Z,8.04
2023-03-27T15:10:52.195Z,8.10
2023-03-27T15:14:18.405Z,8.02
2023-03-27T15:17:23.632Z,7.99
2023-03-27T15:20:31.793Z,7.93
2023-03-27T15:23:41.478Z,7.86
2023-03-27T15:26:44.953Z,8.18
2023-03-27T15:29:53.376Z,8.28
2023-03-27T15:33:01.919Z,7.85
2023-03-27T15:36:10.117Z,7.36
2023-03-27T15:39:22.205Z,7.18
2023-03-27T15:42:25.176Z,6.92
2023-03-27T15:45:39.819Z,7.04
2023-03-27T15:48:46.011Z,7.01
2023-03-27T15:51:49.137Z,6.93
2023-03-27T15:54:57.070Z,6.74
2023-03-27T15:58:01.936Z,6.90
2023-03-27T16:01:18.439Z,6.98
2023-03-27T16:04:28.988Z,6.83
2023-03-27T16:07:45.098Z,6.77
2023-03-27T16:10:48.953Z,6.57
2023-03-27T16:13:56.707Z,6.59
2023-03-27T16:17:24.815Z,6.55
2023-03-27T16:20:40.098Z,6.50
2023-03-27T16:23:44.255Z,6.62
2023-03-27T16:26:47.763Z,6.41
2023-03-27T16:29:51.453Z,6.06
2023-03-27T16:33:01.951Z,4.49
2023-03-27T16:36:10.137Z,3.84
2023-03-27T16:39:23.571Z,3.65
2023-03-27T16:42:27.169Z,3.74
2023-03-27T16:45:32.172Z,3.80
2023-03-27T16:48:38.034Z,3.91
2023-03-27T16:51:44.565Z,3.95
2023-03-27T16:54:51.439Z,4.03
2023-03-27T16:57:55.151Z,3.99
2023-03-27T17:00:59.171Z,4.09
2023-03-27T17:04:02.231Z,4.11
2023-03-27T17:07:11.682Z,4.08
2023-03-27T17:10:15.456Z,4.13
2023-03-27T17:13:31.848Z,4.04
2023-03-27T17:16:37.555Z,4.14
2023-03-27T17:19:40.817Z,4.19
2023-03-27T17:22:45.559Z,4.19
2023-03-27T17:25:49.020Z,4.16
2023-03-27T17:28:53.365Z,4.16
2023-03-27T17:32:00.840Z,4.22
2023-03-27T17:35:05.056Z,4.17
2023-03-27T17:38:10.435Z,4.11
2023-03-27T17:41:14.606Z,4.00
2023-03-27T17:44:18.514Z,4.00
2023-03-27T17:47:21.702Z,3.99
2023-03-27T17:50:25.562Z,3.98
2023-03-27T17:53:30.263Z,3.97
2023-03-27T17:56:33.787Z,3.95
2023-03-27T17:59:38.790Z,3.94
2023-03-27T18:02:45.063Z,3.93
2023-03-27T18:05:48.236Z,3.95
2023-03-27T18:08:52.557Z,3.96
2023-03-27T18:11:57.979Z,3.96
2023-03-27T18:15:09.592Z,3.87
2023-03-27T18:18:13.169Z,3.88
2023-03-27T18:21:19.567Z,3.89
2023-03-27T18:24:25.571Z,3.95
2023-03-27T18:27:28.629Z,3.90
2023-03-27T18:30:32.385Z,3.93
2023-03-27T18:33:38.693Z,3.93
2023-03-27T18:36:42.449Z,3.96
2023-03-27T18:39:46.975Z,3.97
2023-03-27T18:42:50.521Z,4.00
2023-03-27T18:45:58.008Z,4.00
2023-03-27T18:49:13.507Z,3.87
2023-03-27T18:52:20.901Z,3.66
2023-03-27T18:55:27.066Z,3.37
2023-03-27T18:58:30.704Z,3.33
2023-03-27T19:01:34.923Z,3.24
2023-03-27T19:04:37.983Z,3.22
2023-03-27T19:07:44.397Z,3.13
2023-03-27T19:10:49.685Z,3.14
2023-03-27T19:14:18.686Z,3.11
2023-03-27T19:17:50.666Z,3.12
2023-03-27T19:21:13.114Z,3.12
2023-03-27T19:24:23.570Z,3.10
2023-03-27T19:27:38.605Z,3.04
2023-03-27T19:30:42.916Z,3.07
2023-03-27T19:33:46.176Z,2.98
2023-03-27T19:36:52.316Z,2.98
2023-03-27T19:39:55.660Z,3.00
2023-03-27T19:42:59.968Z,3.04
2023-03-27T19:46:14.766Z,3.00
2023-03-27T19:49:19.866Z,3.02
2023-03-27T19:52:34.459Z,2.97
2023-03-27T19:55:37.920Z,2.94
2023-03-27T19:58:42.282Z,2.96
2023-03-27T20:01:45.370Z,2.96
2023-03-27T20:04:48.429Z,2.95
2023-03-27T20:07:54.574Z,2.99
2023-03-27T20:10:57.737Z,3.02
2023-03-27T20:14:02.342Z,3.01
2023-03-27T20:17:12.244Z,3.03
2023-03-27T20:20:26.080Z,3.05
2023-03-27T20:23:31.808Z,3.06
2023-03-27T20:26:39.661Z,3.08
2023-03-27T20:29:49.912Z,3.03
2023-03-27T20:32:53.231Z,3.05
2023-03-27T20:35:56.488Z,3.02
2023-03-27T20:38:59.668Z,2.97
2023-03-27T20:42:03.725Z,2.95
2023-03-27T20:45:16.355Z,2.93
2023-03-27T20:48:21.857Z,2.94
2023-03-27T20:51:27.677Z,2.94
2023-03-27T20:54:35.887Z,2.88
2023-03-27T20:57:42.876Z,2.83
2023-03-27T21:00:48.796Z,2.82
2023-03-27T21:03:53.677Z,2.81
2023-03-27T21:06:57.729Z,2.75
2023-03-27T21:10:00.866Z,2.81
2023-03-27T21:13:04.387Z,2.78
2023-03-27T21:16:09.859Z,2.74
2023-03-27T21:19:13.191Z,2.72
2023-03-27T21:22:17.104Z,2.70
2023-03-27T21:25:20.824Z,2.66
2023-03-27T21:28:27.562Z,2.60
2023-03-27T21:31:32.234Z,2.64
2023-03-27T21:34:35.813Z,2.55
2023-03-27T21:37:38.992Z,2.53
2023-03-27T21:40:42.208Z,2.47
2023-03-27T21:43:45.528Z,2.44
2023-03-27T21:46:49.801Z,2.45
2023-03-27T21:49:52.761Z,2.42
2023-03-27T21:52:55.782Z,2.24
2023-03-27T21:55:59.118Z,2.23
2023-03-27T21:59:02.313Z,2.19
2023-03-27T22:02:06.717Z,2.21
2023-03-27T22:05:10.368Z,2.22
2023-03-27T22:08:17.183Z,2.26
2023-03-27T22:11:20.778Z,2.30
2023-03-27T22:14:26.514Z,2.31
2023-03-27T22:17:31.139Z,2.35
2023-03-27T22:20:34.621Z,2.36
2023-03-27T22:23:39.590Z,2.32
2023-03-27T22:26:45.202Z,2.33
2023-03-27T22:29:50.704Z,2.42
2023-03-27T22:32:56.306Z,2.44
2023-03-27T22:35:59.599Z,2.43
2023-03-27T22:39:03.848Z,2.42
2023-03-27T22:42:09.109Z,2.41
2023-03-27T22:45:12.754Z,2.42
2023-03-27T22:48:17.598Z,2.42
2023-03-27T22:51:23.174Z,2.43
2023-03-27T22:54:26.352Z,2.45
2023-03-27T22:57:30.296Z,2.48
2023-03-27T23:00:33.388Z,2.45
2023-03-27T23:03:39.347Z,2.44
2023-03-27T23:06:42.491Z,2.42
2023-03-27T23:09:50.417Z,2.47
2023-03-27T23:12:58.747Z,2.52
2023-03-27T23:16:02.404Z,2.48
2023-03-27T23:19:07.048Z,2.51
2023-03-27T23:22:10.469Z,2.52
2023-03-27T23:25:16.265Z,2.50
2023-03-27T23:28:22.400Z,2.49
2023-03-27T23:31:28.412Z,2.51
2023-03-27T23:34:35.939Z,2.48
2023-03-27T23:37:39.118Z,2.43
2023-03-27T23:40:45.630Z,2.47
2023-03-27T23:43:49.272Z,2.46
2023-03-27T23:46:55.264Z,2.43
2023-03-27T23:49:59.610Z,2.51
2023-03-27T23:53:02.590Z,2.26
2023-03-27T23:56:09.049Z,1.04
2023-03-27T23:59:12.001Z,0.81
